Time;durP1;ratioP1;P1;durP2;ratioP2;P2;SDS_P1;SDS_P2;PMS_P1;PMS_P2;Temp;Humidity;BMP_temperature;BMP_pressure;BME280_temperature;BME280_humidity;BME280_pressure;Samples;Min_cycle;Max_cycle;Signal;HPM_P1;HPM_P2
2024/04/18 00:02:21;;;;;;;1.00;0.70;;;;;;;2.52;100.00;100564.59;6578962;21;20302;-68
2024/04/18 00:04:58;;;;;;;0.90;0.63;;;;;;;2.52;100.00;100567.25;6582172;21;20585;-69
2024/04/18 00:07:40;;;;;;;0.80;0.50;;;;;;;2.58;100.00;100568.47;6579523;21;20571;-69
2024/04/18 00:10:18;;;;;;;0.80;0.50;;;;;;;2.54;100.00;100575.13;6579256;21;20773;-67
2024/04/18 00:12:48;;;;;;;1.85;0.98;;;;;;;2.49;100.00;100567.59;6579138;21;20288;-67
2024/04/18 00:15:27;;;;;;;0.80;0.50;;;;;;;2.36;100.00;100571.69;6578496;21;20326;-68
2024/04/18 00:18:00;;;;;;;1.23;0.95;;;;;;;2.26;100.00;100571.78;6578723;21;20254;-70
2024/04/18 00:20:34;;;;;;;1.65;0.82;;;;;;;2.24;100.00;100570.25;6623090;21;20232;-67
2024/04/18 00:23:22;;;;;;;0.90;0.73;;;;;;;2.45;100.00;100565.38;6580806;21;20307;-68
2024/04/18 00:26:12;;;;;;;0.90;0.70;;;;;;;2.32;100.00;100570.31;6579386;21;20224;-68
2024/04/18 00:29:02;;;;;;;1.00;0.90;;;;;;;2.39;100.00;100571.34;6578901;21;20231;-68
2024/04/18 00:31:38;;;;;;;1.00;0.88;;;;;;;2.40;100.00;100578.38;6580091;21;20265;-69
2024/04/18 00:34:10;;;;;;;0.90;0.70;;;;;;;2.26;100.00;100577.13;6579687;21;20310;-69
2024/04/18 00:36:49;;;;;;;1.85;0.75;;;;;;;2.14;100.00;100578.34;6581622;21;20228;-68
2024/04/18 00:39:28;;;;;;;1.67;1.27;;;;;;;2.17;100.00;100573.56;6577697;21;20243;-68
2024/04/18 00:42:05;;;;;;;2.38;1.70;;;;;;;2.01;100.00;100578.75;6577101;21;20339;-68
2024/04/18 00:44:35;;;;;;;4.20;1.05;;;;;;;2.04;100.00;100583.78;6577011;21;20220;-69
2024/04/18 00:47:19;;;;;;;0.80;0.50;;;;;;;2.05;100.00;100576.63;6577290;21;20567;-69
2024/04/18 00:50:09;;;;;;;2.25;1.77;;;;;;;1.92;100.00;100587.69;6577226;21;20240;-69
2024/04/18 00:52:44;;;;;;;0.80;0.50;;;;;;;2.07;100.00;100585.31;6579832;21;20602;-69
2024/04/18 00:55:36;;;;;;;0.80;0.50;;;;;;;2.07;100.00;100585.31;6578099;21;20225;-68
2024/04/18 00:58:15;;;;;;;1.17;0.80;;;;;;;2.03;100.00;100584.75;6576910;21;20278;-69
2024/04/18 01:00:53;;;;;;;1.25;0.82;;;;;;;2.21;100.00;100595.44;6579481;21;20392;-69
2024/04/18 01:03:46;;;;;;;17.10;0.90;;;;;;;2.28;100.00;100595.63;6579477;21;20247;-68
2024/04/18 01:06:40;;;;;;;0.95;0.85;;;;;;;2.19;100.00;100602.75;6544627;21;20691;-69
2024/04/18 01:09:22;;;;;;;0.80;0.50;;;;;;;2.16;100.00;100598.56;6577385;21;20582;-69
2024/04/18 01:12:12;;;;;;;1.10;0.93;;;;;;;2.08;100.00;100601.16;6576983;21;20247;-68
2024/04/18 01:14:50;;;;;;;0.80;0.50;;;;;;;2.04;100.00;100601.63;6576917;21;20253;-68
2024/04/18 01:17:32;;;;;;;1.75;0.73;;;;;;;2.07;100.00;100604.84;6576931;21;20271;-69
2024/04/18 01:20:08;;;;;;;1.05;0.90;;;;;;;2.02;100.00;100609.81;6577135;21;20338;-70
2024/04/18 01:22:38;;;;;;;0.98;0.60;;;;;;;1.99;100.00;100602.09;6577243;21;20227;-68
2024/04/18 01:25:13;;;;;;;0.80;0.50;;;;;;;1.84;100.00;100603.63;6579185;21;20275;-68
2024/04/18 01:27:48;;;;;;;1.75;1.10;;;;;;;1.79;100.00;100605.09;6577058;21;20223;-69
2024/04/18 01:30:21;;;;;;;0.80;0.50;;;;;;;1.81;100.00;100609.28;6579142;21;20333;-68
2024/04/18 01:33:08;;;;;;;1.13;0.73;;;;;;;1.79;100.00;100600.59;6578494;21;20638;-71
2024/04/18 01:35:43;;;;;;;1.85;1.15;;;;;;;1.79;100.00;100603.25;6579102;21;20337;-66
2024/04/18 01:38:23;;;;;;;0.80;0.50;;;;;;;1.78;100.00;100603.41;6576980;21;20312;-67
2024/04/18 01:40:57;;;;;;;1.70;0.93;;;;;;;1.79;100.00;100605.94;6579407;21;20236;-68
2024/04/18 01:44:08;;;;;;;0.80;0.50;;;;;;;1.61;100.00;100607.72;6579311;21;20671;-69
2024/04/18 01:47:00;;;;;;;0.90;0.80;;;;;;;1.53;100.00;100608.50;6578945;21;20265;-68
2024/04/18 01:49:31;;;;;;;1.27;0.60;;;;;;;1.55;100.00;100605.69;6576625;21;20539;-69
2024/04/18 01:52:06;;;;;;;1.10;0.95;;;;;;;1.56;100.00;100613.53;6576031;21;20605;-68
2024/04/18 01:54:35;;;;;;;0.80;0.60;;;;;;;1.53;100.00;100613.00;6577035;21;20683;-70
2024/04/18 01:57:10;;;;;;;1.30;1.20;;;;;;;1.55;100.00;100613.69;6578996;21;20228;-69
2024/04/18 02:00:21;;;;;;;0.93;0.85;;;;;;;1.43;100.00;100620.22;6580848;21;20282;-68
2024/04/18 02:02:53;;;;;;;0.80;0.52;;;;;;;1.46;100.00;100625.25;6536876;21;20228;-70
2024/04/18 02:05:45;;;;;;;1.05;0.95;;;;;;;1.48;100.00;100617.94;6578622;21;20729;-69
2024/04/18 02:08:17;;;;;;;1.10;0.95;;;;;;;1.38;100.00;100628.66;6578636;21;20239;-68
2024/04/18 02:10:54;;;;;;;0.80;0.50;;;;;;;1.43;100.00;100621.06;6578629;21;20874;-69
2024/04/18 02:14:02;;;;;;;1.15;0.95;;;;;;;1.37;100.00;100626.97;6580741;21;20275;-68
2024/04/18 02:16:39;;;;;;;1.33;0.65;;;;;;;1.26;100.00;100625.34;6578983;21;20228;-70
2024/04/18 02:19:23;;;;;;;1.35;1.17;;;;;;;1.35;100.00;100623.66;6578808;21;20529;-67
2024/04/18 02:22:23;;;;;;;2.17;1.23;;;;;;;1.39;100.00;100634.84;6579507;21;20228;-69
2024/04/18 02:25:14;;;;;;;5.20;1.45;;;;;;;1.30;100.00;100629.44;6581266;21;20317;-69
2024/04/18 02:27:50;;;;;;;0.88;0.70;;;;;;;1.23;100.00;100628.31;6578405;21;20250;-69
2024/04/18 02:30:25;;;;;;;1.23;1.13;;;;;;;1.25;100.00;100634.38;6578298;21;20266;-68
2024/04/18 02:33:18;;;;;;;0.80;0.60;;;;;;;1.18;100.00;100635.94;6580063;21;20224;-70
2024/04/18 02:36:14;;;;;;;1.05;0.95;;;;;;;1.21;100.00;100645.47;6582514;21;20565;-70
2024/04/18 02:38:47;;;;;;;0.80;0.60;;;;;;;1.20;100.00;100651.78;6583247;21;20232;-66
2024/04/18 02:41:20;;;;;;;0.90;0.70;;;;;;;1.24;100.00;100643.34;6579168;21;20325;-68
2024/04/18 02:43:50;;;;;;;0.80;0.70;;;;;;;1.11;100.00;100653.50;6585050;21;20221;-68
2024/04/18 02:46:24;;;;;;;1.90;0.95;;;;;;;1.02;100.00;100651.69;6580282;21;20267;-68
2024/04/18 02:49:21;;;;;;;3.40;1.38;;;;;;;0.98;100.00;100647.66;6580465;21;20292;-68
2024/04/18 02:52:01;;;;;;;1.20;1.10;;;;;;;1.02;100.00;100650.88;6580484;21;20346;-69
2024/04/18 02:54:48;;;;;;;2.05;1.13;;;;;;;0.97;100.00;100651.31;6580626;21;20266;-67
2024/04/18 02:57:23;;;;;;;0.80;0.50;;;;;;;0.93;100.00;100655.25;6580572;21;20303;-68
2024/04/18 02:59:53;;;;;;;0.80;0.50;;;;;;;0.93;100.00;100649.91;6581226;21;20274;-68
2024/04/18 03:02:27;;;;;;;0.90;0.73;;;;;;;1.07;100.00;100656.59;6579477;21;20244;-68
2024/04/18 03:05:21;;;;;;;1.65;0.82;;;;;;;1.11;100.00;100648.19;6582147;21;20251;-67
2024/04/18 03:07:59;;;;;;;1.05;0.95;;;;;;;1.17;100.00;100660.06;6579596;21;20228;-68
2024/04/18 03:10:49;;;;;;;0.80;0.55;;;;;;;1.07;100.00;100657.44;6580841;21;20232;-70
2024/04/18 03:13:44;;;;;;;0.80;0.50;;;;;;;1.06;100.00;100660.25;6580116;21;20298;-69
2024/04/18 03:16:30;;;;;;;1.00;0.90;;;;;;;1.03;100.00;100661.38;6580426;21;20220;-69
2024/04/18 03:19:24;;;;;;;0.80;0.50;;;;;;;0.93;100.00;100655.25;6578815;21;20228;-67
2024/04/18 03:21:58;;;;;;;1.00;0.85;;;;;;;1.07;100.00;100665.44;6578137;21;20326;-69
2024/04/18 03:24:51;;;;;;;0.80;0.60;;;;;;;1.03;100.00;100671.19;6580189;21;20220;-68
2024/04/18 03:27:29;;;;;;;0.98;0.88;;;;;;;1.06;100.00;100666.44;6578758;21;20224;-68
2024/04/18 03:30:04;;;;;;;0.80;0.60;;;;;;;1.14;100.00;100663.03;6536366;21;20578;-68
2024/04/18 03:32:35;;;;;;;1.45;0.70;;;;;;;1.01;100.00;100668.69;6578324;21;20702;-67
2024/04/18 03:35:10;;;;;;;0.90;0.60;;;;;;;1.17;100.00;100668.91;6580553;21;20307;-68
2024/04/18 03:37:45;;;;;;;1.20;0.68;;;;;;;1.11;100.00;100682.84;6578369;21;20679;-68
2024/04/18 03:40:31;;;;;;;1.10;0.70;;;;;;;0.98;100.00;100679.63;6578345;21;20604;-68
2024/04/18 03:43:08;;;;;;;0.80;0.50;;;;;;;1.08;100.00;100674.28;6578297;21;20296;-67
2024/04/18 03:45:41;;;;;;;1.17;0.98;;;;;;;0.99;100.00;100676.00;6580106;21;20269;-69
2024/04/18 03:48:31;;;;;;;1.25;1.15;;;;;;;1.09;100.00;100675.94;6578403;21;20228;-66
2024/04/18 03:51:01;;;;;;;0.90;0.80;;;;;;;1.10;100.00;100682.97;6578826;21;20326;-67
2024/04/18 03:53:57;;;;;;;1.02;0.60;;;;;;;1.08;100.00;100680.44;6578766;21;20278;-69
2024/04/18 03:56:51;;;;;;;1.65;1.55;;;;;;;0.96;100.00;100681.63;6580143;21;20279;-69
2024/04/18 03:59:24;;;;;;;0.80;0.60;;;;;;;0.92;100.00;100685.53;6578487;21;20224;-66
2024/04/18 04:01:57;;;;;;;0.80;0.60;;;;;;;1.13;100.00;100696.00;6577797;21;20287;-68
2024/04/18 04:04:27;;;;;;;0.80;0.50;;;;;;;1.20;100.00;100689.09;6578203;21;20271;-68
2024/04/18 04:07:00;;;;;;;0.90;0.75;;;;;;;1.12;100.00;100699.63;6578293;21;20275;-67
2024/04/18 04:09:35;;;;;;;0.80;0.60;;;;;;;1.14;100.00;100697.69;6578336;21;20622;-69
2024/04/18 04:12:10;;;;;;;1.45;0.93;;;;;;;1.11;100.00;100701.50;6575287;21;20310;-68
2024/04/18 04:15:09;;;;;;;1.77;1.38;;;;;;;1.20;100.00;100710.44;6578513;21;20537;-67
2024/04/18 04:18:05;;;;;;;2.20;1.90;;;;;;;1.20;100.00;100708.59;6580479;21;20307;-68
2024/04/18 04:20:42;;;;;;;0.80;0.70;;;;;;;1.08;100.00;100701.75;6577878;21;20742;-68
2024/04/18 04:23:18;;;;;;;1.00;0.88;;;;;;;1.21;100.00;100712.09;6578177;21;20589;-69
2024/04/18 04:26:01;;;;;;;4.57;1.42;;;;;;;1.16;100.00;100712.53;6580331;21;20220;-68
2024/04/18 04:28:37;;;;;;;2.67;1.20;;;;;;;1.29;100.00;100710.38;6577628;21;20219;-68
2024/04/18 04:31:07;;;;;;;1.05;0.95;;;;;;;1.51;100.00;100713.63;6577236;21;20295;-68
2024/04/18 04:33:42;;;;;;;0.80;0.50;;;;;;;2.71;100.00;100723.81;6577276;21;20601;-68
2024/04/18 04:36:12;;;;;;;0.80;0.60;;;;;;;3.96;100.00;100724.13;6577596;21;20254;-68
2024/04/18 04:38:44;;;;;;;1.17;1.08;;;;;;;4.99;100.00;100729.69;6577771;21;20579;-68
2024/04/18 04:41:22;;;;;;;1.35;0.93;;;;;;;5.86;100.00;100730.56;6577069;21;20284;-68
2024/04/18 04:43:58;;;;;;;0.90;0.70;;;;;;;6.93;96.71;100743.97;6576990;21;20232;-67
2024/04/18 04:46:48;;;;;;;5.13;2.33;;;;;;;7.22;89.80;100744.00;6578617;21;20267;-68
2024/04/18 04:49:23;;;;;;;1.75;1.00;;;;;;;7.63;83.04;100757.88;6576854;21;20220;-69
2024/04/18 04:52:02;;;;;;;2.17;1.35;;;;;;;8.26;79.71;100759.91;6576932;21;20244;-68
2024/04/18 04:54:46;;;;;;;2.45;1.90;;;;;;;9.00;75.13;100759.63;6579773;21;20270;-68
2024/04/18 04:57:19;;;;;;;2.97;1.45;;;;;;;8.96;70.92;100767.25;6576536;21;20254;-69
2024/04/18 05:00:13;;;;;;;1.35;0.85;;;;;;;7.14;77.69;100772.88;6578483;21;20258;-68
2024/04/18 05:02:58;;;;;;;1.58;0.95;;;;;;;7.43;77.35;100771.06;6579077;21;20231;-68
2024/04/18 05:05:50;;;;;;;1.55;0.95;;;;;;;7.95;75.10;100777.34;6578845;21;20220;-67
2024/04/18 05:08:41;;;;;;;0.90;0.80;;;;;;;8.45;72.58;100784.63;6579731;21;20224;-67
2024/04/18 05:11:10;;;;;;;2.80;0.75;;;;;;;9.12;69.59;100791.28;6577106;21;20240;-68
2024/04/18 05:13:47;;;;;;;1.80;1.50;;;;;;;7.60;72.86;100795.13;6534865;21;20228;-70
2024/04/18 05:16:20;;;;;;;2.35;0.82;;;;;;;5.93;81.82;100788.00;6577015;21;20735;-70
2024/04/18 05:19:14;;;;;;;1.67;1.58;;;;;;;4.75;88.70;100786.84;6578750;21;20242;-68
2024/04/18 05:21:45;;;;;;;3.03;1.40;;;;;;;4.10;94.75;100785.09;6579323;21;20552;-70
2024/04/18 05:24:37;;;;;;;0.80;0.50;;;;;;;3.78;99.26;100783.97;6579811;21;20645;-68
2024/04/18 05:27:07;;;;;;;1.35;1.25;;;;;;;3.50;100.00;100777.13;6577201;21;20280;-68
2024/04/18 05:32:29;;;;;;;1.77;1.42;;;;;;;3.70;100.00;100793.78;6548301;21;20229;-69
2024/04/18 05:35:29;;;;;;;1.63;1.00;;;;;;;3.69;100.00;100800.13;6573960;21;20221;-69
2024/04/18 05:38:04;;;;;;;1.48;1.17;;;;;;;3.77;100.00;100806.41;6577586;21;20223;-70
2024/04/18 05:40:38;;;;;;;2.45;0.90;;;;;;;3.78;100.00;100808.03;6577589;21;20271;-69
2024/04/18 05:43:24;;;;;;;1.80;0.85;;;;;;;3.98;100.00;100810.47;6577805;21;20275;-69
2024/04/18 05:46:15;;;;;;;1.77;1.67;;;;;;;4.09;100.00;100812.84;6578050;21;20232;-69
2024/04/18 05:48:49;;;;;;;2.33;1.35;;;;;;;4.11;100.00;100817.06;6577067;21;20224;-68
2024/04/18 05:51:31;;;;;;;0.93;0.80;;;;;;;4.04;100.00;100818.72;6577189;21;20275;-69
2024/04/18 05:54:22;;;;;;;1.95;1.48;;;;;;;4.15;100.00;100830.97;6580034;21;20255;-70
2024/04/18 05:57:11;;;;;;;1.00;0.70;;;;;;;4.30;100.00;100819.47;6577446;21;20270;-69
2024/04/18 05:59:57;;;;;;;0.95;0.70;;;;;;;4.23;100.00;100831.81;6580043;21;20224;-71
2024/04/18 06:02:33;;;;;;;1.52;0.80;;;;;;;4.48;100.00;100830.06;6581008;21;20366;-70
2024/04/18 06:05:09;;;;;;;1.75;1.20;;;;;;;4.51;99.01;100832.41;6580091;21;20375;-70
2024/04/18 06:08:12;;;;;;;0.82;0.57;;;;;;;4.69;96.92;100835.81;6579493;21;20262;-70
2024/04/18 06:11:08;;;;;;;16.67;11.50;;;;;;;4.86;97.67;100841.16;6577012;21;20271;-70
2024/04/18 06:13:41;;;;;;;7.03;4.47;;;;;;;4.91;96.54;100844.19;6576909;21;20240;-70
2024/04/18 06:16:18;;;;;;;0.90;0.80;;;;;;;5.06;94.46;100842.50;6577064;21;20225;-69
2024/04/18 06:19:13;;;;;;;1.55;0.80;;;;;;;5.15;94.04;100853.06;6576949;21;20548;-70
2024/04/18 06:21:49;;;;;;;2.20;1.77;;;;;;;5.28;92.97;100844.50;6577205;21;20259;-71
2024/04/18 06:24:23;;;;;;;2.00;1.10;;;;;;;5.21;92.25;100852.41;6577337;21;20267;-70
2024/04/18 06:27:20;;;;;;;1.20;1.02;;;;;;;5.56;91.97;100856.56;6579536;21;20216;-69
2024/04/18 06:29:53;;;;;;;2.67;1.90;;;;;;;5.76;90.29;100858.88;6576925;21;20227;-69
2024/04/18 06:32:25;;;;;;;1.58;1.48;;;;;;;5.93;89.24;100857.84;6578258;21;20271;-69
2024/04/18 06:35:02;;;;;;;2.25;1.23;;;;;;;6.02;87.91;100859.47;6577291;21;20236;-71
2024/04/18 06:37:36;;;;;;;1.45;1.35;;;;;;;6.16;87.50;100864.13;6577487;21;20224;-70
2024/04/18 06:40:11;;;;;;;1.60;0.98;;;;;;;6.10;86.30;100856.75;6576889;21;20323;-70
2024/04/18 06:42:49;;;;;;;2.80;0.95;;;;;;;6.28;86.35;100865.44;6577006;21;20231;-69
2024/04/18 06:45:35;;;;;;;0.90;0.70;;;;;;;6.38;85.35;100865.22;6581301;21;20279;-70
2024/04/18 06:48:13;;;;;;;1.30;0.95;;;;;;;6.65;84.79;100874.63;6579282;21;20287;-70
2024/04/18 06:50:55;;;;;;;2.05;1.83;;;;;;;6.85;82.08;100882.06;6579625;21;20236;-71
2024/04/18 06:53:30;;;;;;;1.00;0.90;;;;;;;6.74;82.35;100878.94;6579475;21;20232;-72
2024/04/18 06:56:18;;;;;;;0.93;0.60;;;;;;;6.74;81.46;100878.94;6578673;21;20749;-70
2024/04/18 06:58:56;;;;;;;0.90;0.60;;;;;;;6.98;82.24;100884.16;6581321;21;20684;-70
2024/04/18 07:01:50;;;;;;;1.52;1.42;;;;;;;6.87;80.84;100887.28;6580418;21;20228;-70
2024/04/18 07:04:24;;;;;;;2.95;1.00;;;;;;;6.87;80.47;100887.28;6579109;21;20232;-70
2024/04/18 07:07:19;;;;;;;2.75;2.35;;;;;;;6.79;77.72;100890.84;6578188;21;20228;-69
2024/04/18 07:09:52;;;;;;;1.95;1.70;;;;;;;6.86;78.43;100894.50;6578783;21;20228;-69
2024/04/18 07:12:27;;;;;;;2.80;1.05;;;;;;;6.92;79.32;100895.66;6579055;21;20341;-70
2024/04/18 07:15:21;;;;;;;2.50;1.20;;;;;;;7.37;78.35;100892.94;6584818;21;20216;-70
2024/04/18 07:18:17;;;;;;;0.90;0.68;;;;;;;7.52;76.41;100901.03;6583325;21;20314;-69
2024/04/18 07:20:51;;;;;;;1.30;0.88;;;;;;;7.55;75.16;100905.25;6578669;21;20247;-70
2024/04/18 07:23:48;;;;;;;1.33;0.70;;;;;;;7.62;73.96;100908.88;6579292;21;20228;-72
2024/04/18 07:26:46;;;;;;;0.80;0.50;;;;;;;7.76;73.09;100914.28;6566247;21;20643;-70
2024/04/18 07:29:33;;;;;;;1.63;1.00;;;;;;;7.84;72.66;100913.38;6536161;21;20527;-70
2024/04/18 07:32:10;;;;;;;4.28;0.75;;;;;;;7.98;70.58;100915.25;6578834;21;20236;-70
2024/04/18 07:35:05;;;;;;;1.20;0.70;;;;;;;7.74;68.33;100923.59;6578669;21;20544;-70
2024/04/18 07:37:47;;;;;;;1.05;0.95;;;;;;;7.64;69.36;100914.94;6581080;21;20286;-71
2024/04/18 07:40:28;;;;;;;1.75;1.65;;;;;;;7.58;67.80;100916.47;6578370;21;20314;-70
2024/04/18 07:43:10;;;;;;;0.90;0.60;;;;;;;7.56;66.61;100913.13;6578655;21;20274;-69
2024/04/18 07:45:47;;;;;;;0.90;0.60;;;;;;;7.68;67.33;100918.91;6580011;21;20718;-70
2024/04/18 07:48:37;;;;;;;0.80;0.50;;;;;;;7.95;66.55;100918.28;6580708;21;20228;-69
2024/04/18 07:51:14;;;;;;;2.10;1.65;;;;;;;7.95;64.51;100922.84;6578296;21;20235;-70
2024/04/18 07:53:56;;;;;;;1.13;0.80;;;;;;;7.98;63.83;100920.66;6577893;21;20244;-69
2024/04/18 07:59:42;;;;;;;0.95;0.55;;;;;;;8.27;59.20;100925.22;6578318;21;20339;-69
2024/04/18 08:02:23;;;;;;;1.98;1.50;;;;;;;8.47;60.98;100928.19;6578247;21;20271;-70
2024/04/18 08:05:06;;;;;;;0.90;0.50;;;;;;;8.53;61.98;100932.81;6578320;21;20224;-69
2024/04/18 08:07:46;;;;;;;0.90;0.60;;;;;;;8.61;60.45;100932.75;6578153;21;20224;-69
2024/04/18 08:10:34;;;;;;;0.90;0.70;;;;;;;8.65;61.54;100931.34;6578131;21;20224;-70
2024/04/18 08:13:41;;;;;;;0.93;0.65;;;;;;;8.91;60.59;100941.59;6579939;21;20682;-69
2024/04/18 08:16:23;;;;;;;1.88;0.98;;;;;;;8.62;60.07;100935.22;6578205;21;20787;-70
2024/04/18 08:19:00;;;;;;;0.90;0.60;;;;;;;8.66;60.82;100928.47;6578241;21;20687;-70
2024/04/18 08:21:37;;;;;;;0.90;0.50;;;;;;;9.00;60.31;100937.78;6580217;21;20325;-69
2024/04/18 08:24:21;;;;;;;1.70;0.90;;;;;;;9.16;54.59;100941.03;6578241;21;20636;-71
2024/04/18 08:27:01;;;;;;;0.80;0.50;;;;;;;9.26;53.41;100942.59;6580227;21;20223;-70
2024/04/18 08:29:46;;;;;;;1.15;0.73;;;;;;;9.11;52.59;100946.19;6578230;21;20224;-71
2024/04/18 08:32:22;;;;;;;0.90;0.60;;;;;;;9.23;51.92;100951.09;6580191;21;20333;-71
2024/04/18 08:35:01;;;;;;;0.90;0.60;;;;;;;9.03;51.67;100951.72;6578191;21;20620;-71
2024/04/18 08:37:36;;;;;;;0.80;0.50;;;;;;;9.23;51.37;100941.13;6580211;21;20228;-70
2024/04/18 08:40:15;;;;;;;1.00;0.80;;;;;;;9.10;51.71;100941.00;6580169;21;20631;-73
2024/04/18 08:42:56;;;;;;;1.00;0.73;;;;;;;8.76;51.59;100944.34;6576352;21;20343;-69
2024/04/18 08:45:56;;;;;;;3.92;0.73;;;;;;;8.83;51.93;100942.53;6580612;21;20740;-70
2024/04/18 08:48:37;;;;;;;0.80;0.50;;;;;;;9.06;51.35;100943.22;6580566;21;20232;-71
2024/04/18 08:51:14;;;;;;;0.85;0.60;;;;;;;9.32;50.58;100936.44;6578313;21;20291;-70
2024/04/18 08:53:50;;;;;;;1.45;0.80;;;;;;;9.27;51.05;100941.56;6580826;21;20223;-71
2024/04/18 08:56:26;;;;;;;0.80;0.50;;;;;;;9.16;49.54;100935.66;6580101;21;20220;-71
2024/04/18 08:59:02;;;;;;;1.00;0.50;;;;;;;9.71;49.38;100928.69;6580210;21;20271;-70
2024/04/18 09:01:37;;;;;;;1.15;0.60;;;;;;;9.94;49.96;100929.28;6577381;21;20235;-69
2024/04/18 09:04:14;;;;;;;1.70;0.93;;;;;;;10.07;49.62;100927.72;6577925;21;20271;-70
2024/04/18 09:06:50;;;;;;;1.00;0.70;;;;;;;10.26;48.83;100927.03;6577728;21;20708;-70
2024/04/18 09:09:25;;;;;;;0.85;0.50;;;;;;;10.68;48.03;100937.63;6534626;21;20454;-70
2024/04/18 09:11:59;;;;;;;0.90;0.70;;;;;;;10.67;45.98;100935.97;6579651;21;20235;-70
2024/04/18 09:14:37;;;;;;;0.80;0.50;;;;;;;10.40;46.60;100931.47;6577680;21;20455;-70
2024/04/18 09:17:22;;;;;;;2.08;1.77;;;;;;;10.34;47.08;100932.25;6578811;21;20422;-71
2024/04/18 09:19:57;;;;;;;2.83;2.63;;;;;;;10.54;46.79;100925.09;6581552;21;20282;-70
2024/04/18 09:22:31;;;;;;;1.13;0.87;;;;;;;11.16;45.23;100933.00;6577753;21;20530;-71
2024/04/18 09:25:08;;;;;;;1.47;1.37;;;;;;;11.39;44.97;100934.50;6577294;21;20819;-71
2024/04/18 09:27:43;;;;;;;1.00;0.67;;;;;;;11.24;44.11;100931.97;6577923;21;20427;-72
2024/04/18 09:30:26;;;;;;;1.00;0.60;;;;;;;10.55;44.15;100928.63;6535908;21;21084;-71
2024/04/18 09:33:13;;;;;;;1.33;0.70;;;;;;;10.42;45.30;100932.09;6578195;21;20450;-70
2024/04/18 09:35:54;;;;;;;0.80;0.50;;;;;;;10.21;46.46;100934.91;6535004;21;20478;-71
2024/04/18 09:38:29;;;;;;;2.10;1.33;;;;;;;10.15;46.50;100935.66;6578221;21;20447;-71
2024/04/18 09:41:15;;;;;;;0.93;0.50;;;;;;;9.88;45.96;100930.06;6577258;21;20593;-69
2024/04/18 09:43:56;;;;;;;0.90;0.60;;;;;;;9.79;47.02;100928.53;6577478;21;20459;-70
2024/04/18 09:46:31;;;;;;;1.00;0.70;;;;;;;10.19;46.90;100928.84;6579821;21;20455;-70
2024/04/18 09:49:06;;;;;;;1.50;0.70;;;;;;;10.38;45.81;100926.25;6580245;21;20220;-70
2024/04/18 09:51:50;;;;;;;0.80;0.50;;;;;;;10.30;45.44;100933.69;6579697;21;20551;-71
2024/04/18 09:54:27;;;;;;;1.40;0.70;;;;;;;10.15;46.46;100939.19;6578050;21;20287;-70
2024/04/18 09:57:05;;;;;;;1.97;0.70;;;;;;;10.23;45.57;100940.94;6579630;21;20232;-70
2024/04/18 09:59:46;;;;;;;0.80;0.50;;;;;;;10.02;44.64;100936.41;6579555;21;20435;-71
2024/04/18 10:02:23;;;;;;;0.83;0.50;;;;;;;10.15;44.73;100935.66;6577466;21;20482;-71
2024/04/18 10:05:02;;;;;;;0.90;0.60;;;;;;;10.51;43.12;100936.28;6577327;21;20439;-71
2024/04/18 10:07:38;;;;;;;0.87;0.57;;;;;;;10.51;43.93;100939.00;6577227;21;20513;-70
2024/04/18 10:10:14;;;;;;;0.90;0.57;;;;;;;10.39;44.10;100933.34;6581947;21;20450;-71
2024/04/18 10:12:52;;;;;;;1.00;0.50;;;;;;;10.76;43.80;100933.91;6581230;21;20419;-70
2024/04/18 10:15:28;;;;;;;1.10;0.50;;;;;;;10.87;44.74;100936.03;6581431;21;20291;-70
2024/04/18 10:18:16;;;;;;;0.90;0.60;;;;;;;11.17;43.90;100940.09;6581612;21;20571;-72
2024/04/18 10:21:00;;;;;;;0.90;0.70;;;;;;;10.92;44.58;100928.16;6581481;21;20471;-70
2024/04/18 10:23:50;;;;;;;0.90;0.60;;;;;;;10.74;46.20;100939.53;6580773;21;20509;-70
2024/04/18 10:26:25;;;;;;;1.23;0.70;;;;;;;10.89;45.96;100940.19;6578573;21;20503;-70
2024/04/18 10:29:00;;;;;;;2.27;0.70;;;;;;;10.97;45.54;100932.94;6581542;21;20455;-71
2024/04/18 10:31:36;;;;;;;0.90;0.67;;;;;;;10.86;44.78;100943.31;6579495;21;20541;-70
2024/04/18 10:34:10;;;;;;;1.03;0.70;;;;;;;10.62;46.30;100934.88;6580603;21;20426;-69
2024/04/18 10:36:47;;;;;;;1.43;0.83;;;;;;;10.55;46.31;100934.88;6579161;21;20843;-70
2024/04/18 10:39:34;;;;;;;1.00;0.60;;;;;;;10.74;46.69;100939.53;6581381;21;20494;-70
2024/04/18 10:42:15;;;;;;;2.20;0.73;;;;;;;10.67;47.68;100935.97;6578931;21;20470;-71
2024/04/18 10:44:53;;;;;;;0.90;0.67;;;;;;;10.72;48.73;100936.19;6579356;21;20494;-70
2024/04/18 10:47:28;;;;;;;1.40;0.77;;;;;;;10.31;49.52;100947.00;6581581;21;20447;-70
2024/04/18 10:50:09;;;;;;;1.83;1.03;;;;;;;10.73;50.95;100937.88;6579528;21;20423;-69
2024/04/18 10:52:51;;;;;;;1.30;0.70;;;;;;;10.76;48.65;100945.56;6578578;21;20342;-70
2024/04/18 10:55:50;;;;;;;4.73;0.80;;;;;;;11.31;48.49;100943.66;6539733;21;20659;-70
2024/04/18 10:58:41;;;;;;;1.20;0.90;;;;;;;11.92;46.10;100943.50;6623037;21;20475;-70
2024/04/18 11:01:23;;;;;;;1.50;0.83;;;;;;;12.17;45.88;100941.81;6535735;21;20466;-70
2024/04/18 11:03:57;;;;;;;0.93;0.60;;;;;;;11.46;48.25;100947.03;6581195;21;20903;-70
2024/04/18 11:06:28;;;;;;;0.90;0.77;;;;;;;10.38;51.07;100947.06;6579086;21;20436;-69
2024/04/18 11:09:08;;;;;;;1.00;0.80;;;;;;;10.43;51.70;100952.69;6579513;21;20567;-71
2024/04/18 11:11:47;;;;;;;0.90;0.60;;;;;;;10.12;52.08;100952.28;6578653;21;20471;-71
2024/04/18 11:14:23;;;;;;;0.90;0.60;;;;;;;9.73;52.49;100942.81;6581381;21;20447;-71
2024/04/18 11:17:08;;;;;;;0.90;0.60;;;;;;;9.86;53.61;100947.50;6579101;21;20502;-69
2024/04/18 11:19:48;;;;;;;1.10;0.60;;;;;;;9.30;53.31;100946.56;6578843;21;20498;-70
2024/04/18 11:22:22;;;;;;;0.90;0.60;;;;;;;9.45;54.16;100948.19;6578257;21;20479;-70
2024/04/18 11:25:04;;;;;;;1.63;1.30;;;;;;;9.52;55.46;100950.97;6578379;21;20451;-70
2024/04/18 11:27:42;;;;;;;0.80;0.50;;;;;;;9.37;54.06;100952.88;6578710;21;20608;-71
2024/04/18 11:30:19;;;;;;;1.20;0.70;;;;;;;9.57;55.04;100948.53;6577491;21;20224;-71
2024/04/18 11:33:04;;;;;;;0.90;0.60;;;;;;;9.67;54.93;100938.22;6578975;21;20231;-69
2024/04/18 11:35:42;;;;;;;1.10;0.83;;;;;;;9.47;54.92;100938.03;6580686;21;20578;-70
2024/04/18 11:38:20;;;;;;;1.63;0.90;;;;;;;9.13;56.67;100938.75;6578392;21;20746;-70
2024/04/18 11:41:14;;;;;;;0.80;0.50;;;;;;;9.56;56.35;100933.34;6578884;21;20750;-69
2024/04/18 11:44:12;;;;;;;1.47;1.10;;;;;;;10.17;52.96;100939.00;6578752;21;20224;-70
2024/04/18 11:46:51;;;;;;;0.83;0.50;;;;;;;10.49;51.97;100930.25;6536419;21;20458;-70
2024/04/18 11:49:26;;;;;;;1.30;0.93;;;;;;;10.84;50.52;100928.34;6578367;21;20527;-71
2024/04/18 11:52:02;;;;;;;0.80;0.50;;;;;;;11.02;50.55;100922.34;6578169;21;20525;-70
2024/04/18 11:54:38;;;;;;;1.33;0.80;;;;;;;11.50;49.36;100921.16;6535503;21;20518;-70
2024/04/18 11:57:18;;;;;;;1.27;1.03;;;;;;;12.18;47.44;100924.50;6578461;21;20447;-70
2024/04/18 12:00:01;;;;;;;1.00;0.67;;;;;;;12.43;46.38;100917.34;6578493;21;20532;-70
2024/04/18 12:02:57;;;;;;;0.90;0.60;;;;;;;12.67;46.25;100917.66;6571129;21;20475;-71
2024/04/18 12:05:36;;;;;;;1.57;0.77;;;;;;;12.46;44.50;100916.91;6535411;21;20941;-70
2024/04/18 12:08:18;;;;;;;1.00;0.70;;;;;;;12.70;45.43;100918.06;6579208;21;20467;-69
2024/04/18 12:10:57;;;;;;;1.07;0.73;;;;;;;13.33;44.35;100910.84;6577235;21;20451;-70
2024/04/18 12:14:11;;;;;;;1.10;0.60;;;;;;;13.70;41.45;100914.50;6580318;21;20494;-70
2024/04/18 12:17:00;;;;;;;2.50;1.33;;;;;;;13.77;42.11;100906.31;6578502;21;20455;-70
2024/04/18 12:19:50;;;;;;;1.10;0.60;;;;;;;14.54;40.64;100915.81;6580476;21;20941;-71
2024/04/18 12:22:37;;;;;;;2.87;0.97;;;;;;;14.78;40.23;100912.97;6578411;21;20439;-71
2024/04/18 12:25:17;;;;;;;0.90;0.50;;;;;;;14.31;39.77;100920.00;6580832;21;20447;-71
2024/04/18 12:27:53;;;;;;;1.30;0.70;;;;;;;13.33;40.26;100908.13;6578447;21;20475;-70
2024/04/18 12:30:37;;;;;;;1.13;0.70;;;;;;;12.78;40.67;100914.28;6578254;21;20542;-71
2024/04/18 12:33:24;;;;;;;1.50;0.80;;;;;;;12.69;41.29;100915.56;6579705;21;20479;-72
2024/04/18 12:35:58;;;;;;;1.07;0.50;;;;;;;12.42;41.21;100915.66;6578079;21;20511;-70
2024/04/18 12:38:33;;;;;;;1.73;0.63;;;;;;;12.13;40.42;100916.16;6577788;21;20447;-70